Time;durP1;ratioP1;P1;durP2;ratioP2;P2;SDS_P1;SDS_P2;PMS_P1;PMS_P2;Temp;Humidity;BMP_temperature;BMP_pressure;BME280_temperature;BME280_humidity;BME280_pressure;Samples;Min_cycle;Max_cycle;Signal;HPM_P1;HPM_P2
2022/12/06 00:00:56;;;;;;;;;33.50;27.25;;;;;6.24;71.08;101550.81;5031998;28;45490;-79
2022/12/06 00:03:21;;;;;;;;;27.00;23.75;;;;;6.03;71.21;101516.41;5031635;28;45746;-79
2022/12/06 00:05:47;;;;;;;;;40.50;31.00;;;;;6.02;71.14;101514.59;5032322;28;45466;-79
2022/12/06 00:08:12;;;;;;;;;41.00;33.25;;;;;6.19;71.19;101532.25;5031605;28;50239;-80
2022/12/06 00:10:37;;;;;;;;;31.67;30.00;;;;;6.14;71.22;101540.56;5032009;28;45538;-79
2022/12/06 00:13:03;;;;;;;;;31.00;27.25;;;;;6.01;71.18;101523.25;5031837;28;46015;-83
2022/12/06 00:15:29;;;;;;;;;30.50;26.00;;;;;5.89;71.45;101506.72;5032298;28;45753;-79
2022/12/06 00:17:55;;;;;;;;;31.50;27.75;;;;;5.96;71.58;101524.66;5031851;28;45451;-80
2022/12/06 00:20:20;;;;;;;;;27.67;24.67;;;;;5.99;71.65;101524.81;5031911;28;45635;-79
2022/12/06 00:22:48;;;;;;;;;32.33;28.67;;;;;6.05;71.88;101530.44;5031526;28;56071;-80
2022/12/06 00:25:13;;;;;;;;;43.25;33.25;;;;;5.94;72.05;101515.78;5030979;28;45352;-85
2022/12/06 00:27:39;;;;;;;;;33.75;27.75;;;;;6.04;72.21;101525.13;5032163;28;45545;-79
2022/12/06 00:30:05;;;;;;;;;28.67;27.33;;;;;6.00;72.20;101521.41;5031425;28;45567;-80
2022/12/06 00:32:30;;;;;;;;;30.00;24.25;;;;;5.77;72.16;101479.84;5031456;28;46358;-80
2022/12/06 00:34:55;;;;;;;;;30.25;28.00;;;;;6.05;72.37;101525.22;5031680;28;45454;-79
2022/12/06 00:37:21;;;;;;;;;33.00;23.67;;;;;5.96;72.33;101509.00;5031875;28;45591;-79
2022/12/06 00:39:46;;;;;;;;;30.67;27.33;;;;;5.90;72.32;101487.66;5031278;28;50255;-78
2022/12/06 00:42:11;;;;;;;;;30.00;24.67;;;;;6.10;72.39;101510.75;5030336;28;65985;-79
2022/12/06 00:44:36;;;;;;;;;34.33;28.33;;;;;6.01;72.40;101497.16;5031141;28;51779;-78
2022/12/06 00:47:02;;;;;;;;;31.00;28.33;;;;;6.07;72.84;101515.81;5030390;28;61180;-79
2022/12/06 00:49:27;;;;;;;;;32.00;25.67;;;;;5.83;72.61;101472.44;5031693;28;45477;-81
2022/12/06 00:51:52;;;;;;;;;27.67;26.00;;;;;5.92;72.70;101489.63;5031283;28;45448;-78
2022/12/06 00:54:17;;;;;;;;;36.33;29.33;;;;;6.03;72.59;101505.06;5031214;28;45515;-79
2022/12/06 00:56:43;;;;;;;;;37.67;31.00;;;;;5.77;72.78;101470.31;5031210;28;53481;-79
2022/12/06 00:59:09;;;;;;;;;27.00;24.50;;;;;5.81;72.86;101466.19;5030675;28;45911;-79
2022/12/06 01:01:34;;;;;;;;;29.75;27.25;;;;;5.98;72.76;101503.88;5013273;28;47451;-79
2022/12/06 01:04:03;;;;;;;;;33.50;28.25;;;;;5.98;72.88;101509.97;5030703;28;45401;-79
2022/12/06 01:06:31;;;;;;;;;24.00;18.25;;;;;5.99;72.87;101511.78;5031163;28;45573;-79
2022/12/06 01:09:00;;;;;;;;;31.50;25.25;;;;;5.98;73.10;101509.97;5030924;28;45471;-86
2022/12/06 01:11:27;;;;;;;;;32.75;26.75;;;;;5.88;72.90;101492.78;5030619;28;45736;-85
2022/12/06 01:13:52;;;;;;;;;30.00;26.50;;;;;5.96;72.92;101511.59;5030687;28;45553;-84
2022/12/06 01:16:22;;;;;;;;;30.50;27.25;;;;;5.86;73.06;101485.66;5031334;28;45336;-81
2022/12/06 01:18:51;;;;;;;;;35.00;26.50;;;;;5.88;72.87;101502.31;5030624;28;45377;-85
2022/12/06 01:21:18;;;;;;;;;27.00;23.50;;;;;5.88;73.09;101502.31;5029334;28;48517;-79
2022/12/06 01:23:44;;;;;;;;;31.00;29.00;;;;;5.64;73.31;101472.91;5030916;28;45478;-81
2022/12/06 01:26:28;;;;;;;;;44.25;33.75;;;;;5.67;73.27;101479.25;5030416;28;45573;-80
2022/12/06 01:28:54;;;;;;;;;37.50;29.25;;;;;5.62;73.24;101470.22;5030999;28;45522;-80
2022/12/06 01:31:19;;;;;;;;;34.50;30.50;;;;;5.86;73.41;101502.22;5030887;28;45424;-78
2022/12/06 01:33:45;;;;;;;;;33.00;25.00;;;;;5.87;73.61;101503.13;5031126;28;45575;-79
2022/12/06 01:36:22;;;;;;;;;30.25;25.00;;;;;5.89;73.46;101504.13;5030859;28;45335;-80
2022/12/06 01:38:50;;;;;;;;;29.00;25.00;;;;;5.75;73.75;101471.00;5030519;28;45474;-78
2022/12/06 01:41:16;;;;;;;;;29.75;28.50;;;;;5.69;73.51;101468.91;5045458;28;47356;-84
2022/12/06 01:43:43;;;;;;;;;30.50;26.00;;;;;5.97;73.50;101499.44;5030955;28;45371;-80
2022/12/06 01:46:18;;;;;;;;;30.00;25.75;;;;;6.00;73.40;101502.25;5030042;28;45447;-80
2022/12/06 01:48:43;;;;;;;;;35.75;30.00;;;;;6.02;73.28;101509.38;5030753;28;45558;-79
2022/12/06 01:51:13;;;;;;;;;33.25;29.50;;;;;6.04;73.29;101506.88;5030727;28;46181;-82
2022/12/06 01:53:40;;;;;;;;;32.00;25.75;;;;;5.92;73.20;101483.50;5030699;28;45538;-79
2022/12/06 01:56:07;;;;;;;;;31.25;27.50;;;;;6.08;73.55;101514.09;5030272;28;45427;-79
2022/12/06 01:58:37;;;;;;;;;32.50;29.00;;;;;6.13;73.03;101508.34;5046117;28;45457;-81
2022/12/06 02:01:02;;;;;;;;;34.50;29.50;;;;;6.02;72.96;101485.91;5044903;28;47088;-80
2022/12/06 02:03:31;;;;;;;;;34.75;28.75;;;;;5.88;73.00;101466.69;5030496;28;45541;-79
2022/12/06 02:05:58;;;;;;;;;39.75;36.00;;;;;6.15;72.94;101506.75;5045753;28;45473;-79
2022/12/06 02:08:25;;;;;;;;;34.75;28.25;;;;;6.14;72.62;101507.56;5028897;28;45652;-79
2022/12/06 02:10:51;;;;;;;;;27.75;25.00;;;;;6.10;72.92;101508.16;5028675;28;47375;-79
2022/12/06 02:13:16;;;;;;;;;31.25;28.75;;;;;6.12;72.68;101513.50;5030382;28;45592;-79
2022/12/06 02:16:06;;;;;;;;;27.25;23.75;;;;;6.12;72.79;101513.50;5030026;28;45700;-80
2022/12/06 02:19:10;;;;;;;;;29.50;25.00;;;;;6.11;72.90;101523.03;5030065;28;45502;-80
2022/12/06 02:21:55;;;;;;;;;29.50;27.75;;;;;6.11;72.95;101511.69;5027984;28;46274;-81
2022/12/06 02:24:44;;;;;;;;;29.75;27.00;;;;;6.11;72.68;101522.13;5029701;28;45466;-79
2022/12/06 02:27:45;;;;;;;;;33.75;25.25;;;;;5.90;72.81;101492.88;5029853;28;45704;-81
2022/12/06 02:30:17;;;;;;;;;42.00;34.00;;;;;6.05;72.58;101512.16;5030022;28;45440;-78
2022/12/06 02:33:05;;;;;;;;;29.75;26.50;;;;;5.70;72.76;101458.56;5029401;28;46256;-79
2022/12/06 02:35:36;;;;;;;;;28.75;26.00;;;;;5.95;72.90;101509.75;5030017;28;45669;-80
2022/12/06 02:38:07;;;;;;;;;35.00;29.75;;;;;6.02;72.51;101519.81;5027998;28;45602;-79
2022/12/06 02:40:40;;;;;;;;;31.75;27.75;;;;;5.88;72.58;101489.28;5029667;28;45633;-79
2022/12/06 02:43:12;;;;;;;;;29.00;27.00;;;;;6.03;72.74;101508.56;5029402;28;45340;-78
2022/12/06 02:45:42;;;;;;;;;42.25;33.75;;;;;6.03;72.70;101511.19;5028123;28;45406;-80
2022/12/06 02:48:09;;;;;;;;;34.00;28.50;;;;;5.91;72.41;101490.44;5029812;28;45617;-79
2022/12/06 02:50:39;;;;;;;;;32.00;28.75;;;;;5.79;72.80;101467.81;5029970;28;45730;-79
2022/12/06 02:53:09;;;;;;;;;31.75;27.75;;;;;5.82;72.97;101479.34;5029253;28;45571;-80
2022/12/06 02:55:35;;;;;;;;;31.75;30.50;;;;;5.79;72.76;101466.09;5029658;28;45707;-79
2022/12/06 02:58:00;;;;;;;;;35.75;28.25;;;;;5.78;72.94;101463.41;5029269;28;45566;-79
2022/12/06 03:00:44;;;;;;;;;34.33;29.00;;;;;6.08;72.66;101509.78;5028894;28;45448;-79
2022/12/06 03:03:30;;;;;;;;;33.50;31.00;;;;;6.09;72.56;101516.78;5029406;28;45692;-79
2022/12/06 03:06:07;;;;;;;;;34.00;27.50;;;;;6.07;72.49;101518.41;5029361;28;45842;-80
2022/12/06 03:08:33;;;;;;;;;30.25;27.50;;;;;6.07;72.59;101509.69;5029695;28;45519;-79
2022/12/06 03:11:01;;;;;;;;;32.33;30.33;;;;;6.07;72.63;101507.06;5029475;28;45937;-79
2022/12/06 03:13:55;;;;;;;;;35.00;31.00;;;;;6.07;72.82;101513.19;5029141;28;46120;-80
2022/12/06 03:16:44;;;;;;;;;34.00;28.25;;;;;6.09;72.98;101516.78;5017409;28;45607;-82
2022/12/06 03:19:18;;;;;;;;;38.75;32.00;;;;;6.10;72.59;101518.59;5028970;28;45854;-80
2022/12/06 03:21:52;;;;;;;;;36.00;28.50;;;;;6.04;72.52;101510.38;5029491;28;45426;-79
2022/12/06 03:24:21;;;;;;;;;29.75;27.75;;;;;6.04;72.63;101499.03;5028522;28;45452;-83
2022/12/06 03:26:48;;;;;;;;;32.25;27.75;;;;;6.05;72.75;101504.34;5029007;28;45808;-82
2022/12/06 03:29:18;;;;;;;;;33.75;29.75;;;;;5.93;72.87;101475.75;5029168;28;45551;-85
2022/12/06 03:31:45;;;;;;;;;30.00;26.75;;;;;5.96;73.06;101482.91;5031117;28;45423;-80
2022/12/06 03:34:28;;;;;;;;;35.75;28.00;;;;;6.16;72.93;101497.22;5032397;28;45365;-81
2022/12/06 03:36:54;;;;;;;;;35.25;30.75;;;;;6.05;72.42;101480.84;5032377;28;45490;-80
2022/12/06 03:39:33;;;;;;;;;37.50;32.75;;;;;6.00;72.65;101471.84;5032378;28;45523;-79
2022/12/06 03:41:59;;;;;;;;;33.50;28.50;;;;;6.26;72.53;101510.06;5032467;28;45490;-78
2022/12/06 03:44:25;;;;;;;;;30.75;28.00;;;;;6.14;72.80;101491.88;5032376;28;45733;-79
2022/12/06 03:47:07;;;;;;;;;28.50;24.00;;;;;6.08;72.80;101469.72;5031842;28;45327;-79
2022/12/06 03:49:42;;;;;;;;;36.75;30.00;;;;;6.15;72.89;101472.81;5032819;28;45881;-79
2022/12/06 03:52:08;;;;;;;;;35.25;28.00;;;;;6.36;72.93;101516.78;5032059;28;45387;-79
2022/12/06 03:54:33;;;;;;;;;27.75;24.00;;;;;6.36;72.98;101508.94;5032491;28;46087;-81
2022/12/06 03:56:58;;;;;;;;;27.00;23.33;;;;;6.38;73.22;101508.22;5031578;28;54923;-80
2022/12/06 03:59:24;;;;;;;;;27.00;24.00;;;;;6.37;73.22;101488.16;5032230;28;45405;-79
2022/12/06 04:01:49;;;;;;;;;28.67;23.00;;;;;6.46;73.25;101506.09;5031889;28;45375;-80
2022/12/06 04:04:14;;;;;;;;;27.00;23.00;;;;;6.48;73.11;101504.47;5031494;28;59024;-80
2022/12/06 04:06:40;;;;;;;;;25.33;22.67;;;;;6.37;73.05;101471.59;5032350;28;47410;-80
2022/12/06 04:11:49;;;;;;;;;27.25;23.00;;;;;6.40;73.33;101472.69;5032334;28;45636;-81
2022/12/06 04:14:14;;;;;;;;;22.00;19.33;;;;;6.45;73.39;101475.56;5031448;28;46109;-79
2022/12/06 04:19:24;;;;;;;;;25.00;19.50;;;;;6.67;73.14;101512.66;5032091;28;45554;-79
2022/12/06 04:24:33;;;;;;;;;29.75;25.50;;;;;6.52;73.35;101482.97;5032081;28;45519;-80
2022/12/06 04:40:48;;;;;;;;;27.00;23.75;;;;;6.57;73.20;101470.22;5032059;28;45559;-79
2022/12/06 04:45:57;;;;;;;;;28.25;26.00;;;;;6.67;73.14;101478.72;5030866;28;45431;-83
2022/12/06 04:48:22;;;;;;;;;31.00;23.25;;;;;6.73;73.58;101493.84;5031849;28;45517;-80
2022/12/06 04:50:51;;;;;;;;;25.33;23.00;;;;;6.67;73.56;101473.47;5031013;28;45669;-79
2022/12/06 04:53:17;;;;;;;;;30.00;24.25;;;;;6.63;73.35;101461.03;5030919;28;45511;-81
2022/12/06 04:55:48;;;;;;;;;27.25;25.25;;;;;6.76;73.23;101477.47;5031615;28;46018;-85
2022/12/06 04:58:14;;;;;;;;;22.75;20.00;;;;;6.81;73.50;101486.50;5030972;28;45632;-83
2022/12/06 05:00:42;;;;;;;;;26.00;23.50;;;;;6.51;73.39;101436.78;5031073;28;45405;-80
2022/12/06 05:03:09;;;;;;;;;29.00;27.50;;;;;6.70;73.85;101478.00;5031325;28;45406;-80
2022/12/06 05:05:35;;;;;;;;;32.25;26.00;;;;;6.82;73.67;101491.81;5031592;28;46278;-80
2022/12/06 05:08:00;;;;;;;;;29.50;23.50;;;;;6.57;73.62;101437.16;5030703;28;45723;-80
2022/12/06 05:10:26;;;;;;;;;26.50;22.75;;;;;6.78;73.58;101468.91;5031551;28;45370;-82
2022/12/06 05:12:51;;;;;;;;;32.00;24.50;;;;;6.87;73.76;101490.38;5031098;28;45475;-80
2022/12/06 05:15:16;;;;;;;;;32.67;27.33;;;;;6.65;73.59;101448.06;5030197;28;45591;-81
2022/12/06 05:17:41;;;;;;;;;33.33;28.33;;;;;6.78;73.69;101473.25;5031114;28;45415;-80
2022/12/06 05:20:07;;;;;;;;;34.67;27.67;;;;;6.62;73.72;101438.34;5030489;28;52083;-81
2022/12/06 05:22:32;;;;;;;;;23.25;21.25;;;;;6.67;73.72;101447.38;5031010;28;45554;-83
2022/12/06 05:24:58;;;;;;;;;37.00;28.67;;;;;6.70;73.55;101458.00;5030652;28;46204;-83
2022/12/06 05:27:23;;;;;;;;;28.67;23.00;;;;;6.85;73.70;101480.66;5030086;28;60745;-86
2022/12/06 05:29:48;;;;;;;;;30.00;27.33;;;;;6.66;73.47;101442.97;5030509;28;45516;-82
2022/12/06 05:32:13;;;;;;;;;30.67;24.67;;;;;6.78;73.63;101466.31;5030344;28;45820;-80
2022/12/06 05:34:39;;;;;;;;;32.00;24.67;;;;;6.75;73.85;101463.53;5030279;28;66455;-85
2022/12/06 05:37:04;;;;;;;;;39.33;28.00;;;;;6.59;73.75;101432.03;5029825;28;62760;-85
2022/12/06 05:39:29;;;;;;;;;21.33;20.00;;;;;6.91;73.78;101474.09;5030836;28;45785;-84
2022/12/06 05:41:55;;;;;;;;;33.00;29.50;;;;;6.92;73.93;101475.88;5030734;28;46282;-82
2022/12/06 05:44:20;;;;;;;;;32.67;24.67;;;;;6.86;73.73;101459.84;5030437;28;46179;-86
2022/12/06 05:46:45;;;;;;;;;32.67;29.33;;;;;6.87;73.72;101455.53;5030354;28;45402;-83
2022/12/06 05:49:10;;;;;;;;;35.00;28.67;;;;;6.78;73.70;101439.28;5030510;28;45508;-84
2022/12/06 05:51:36;;;;;;;;;29.67;26.67;;;;;6.95;73.68;101467.34;5030165;28;54301;-84
2022/12/06 05:54:04;;;;;;;;;31.00;25.00;;;;;6.96;73.91;101474.38;5029924;28;45994;-84
2022/12/06 05:56:29;;;;;;;;;39.50;31.50;;;;;6.87;73.94;101461.66;5031863;28;45536;-82
2022/12/06 05:58:54;;;;;;;;;32.50;29.25;;;;;6.86;73.92;101456.34;5031568;28;45442;-85
2022/12/06 06:01:20;;;;;;;;;38.00;31.67;;;;;6.89;73.83;101461.72;5030193;28;53107;-86
2022/12/06 06:03:45;;;;;;;;;37.67;29.33;;;;;6.83;73.91;101437.84;5029124;28;47003;-85
2022/12/06 06:06:10;;;;;;;;;30.33;28.33;;;;;6.98;73.79;101468.41;5029715;28;53411;-83
2022/12/06 06:08:35;;;;;;;;;34.33;28.00;;;;;6.96;73.78;101474.38;5030953;28;45421;-85
2022/12/06 06:11:01;;;;;;;;;29.75;26.75;;;;;6.81;73.92;101448.22;5029812;28;45852;-86
2022/12/06 06:13:26;;;;;;;;;29.25;28.25;;;;;6.91;73.99;101473.19;5029866;28;46328;-85
2022/12/06 06:15:51;;;;;;;;;38.25;27.25;;;;;6.92;74.00;101469.75;5029909;28;45495;-84
2022/12/06 06:18:18;;;;;;;;;29.00;26.33;;;;;6.77;73.90;101455.78;5030018;28;45443;-84
2022/12/06 06:20:55;;;;;;;;;32.75;27.00;;;;;6.91;74.00;101479.31;5045540;28;45574;-85
2022/12/06 06:23:20;;;;;;;;;29.50;27.00;;;;;6.83;74.23;101475.31;5030219;28;47061;-85
2022/12/06 06:25:46;;;;;;;;;28.75;21.25;;;;;6.95;74.21;101486.53;5030263;28;45501;-85
2022/12/06 06:28:12;;;;;;;;;29.75;28.00;;;;;6.92;74.06;101480.22;5029635;28;45624;-86
2022/12/06 06:30:37;;;;;;;;;31.75;25.50;;;;;6.69;73.98;101437.00;5030339;28;45906;-85
2022/12/06 06:33:03;;;;;;;;;34.75;30.50;;;;;6.97;74.05;101486.63;5029652;28;46277;-83
2022/12/06 06:35:28;;;;;;;;;31.50;23.75;;;;;7.01;74.00;101485.09;5029329;28;58235;-84
2022/12/06 06:37:54;;;;;;;;;28.75;26.50;;;;;6.96;73.95;101490.94;5011844;28;45627;-86
2022/12/06 06:40:19;;;;;;;;;37.00;32.67;;;;;6.90;74.08;101487.06;5029881;28;45499;-86
2022/12/06 06:42:44;;;;;;;;;42.25;29.50;;;;;6.59;73.95;101422.47;5029542;28;45421;-85
2022/12/06 06:45:10;;;;;;;;;33.33;28.67;;;;;6.96;73.86;101492.66;5028824;28;55160;-84
2022/12/06 06:47:35;;;;;;;;;30.25;25.75;;;;;6.97;74.19;101491.84;5029999;28;53928;-84
2022/12/06 06:50:01;;;;;;;;;31.25;27.75;;;;;6.98;74.07;101499.78;5029167;28;45464;-84
2022/12/06 06:52:26;;;;;;;;;34.67;29.67;;;;;6.83;73.89;101474.41;5029520;28;45928;-84
2022/12/06 06:54:51;;;;;;;;;30.75;28.75;;;;;6.87;74.27;101474.72;5029470;28;45576;-85
2022/12/06 06:57:17;;;;;;;;;36.00;29.33;;;;;6.83;73.76;101477.03;5028956;28;46041;-85
2022/12/06 06:59:43;;;;;;;;;34.00;30.00;;;;;6.75;73.98;101452.13;5030187;28;45367;-85
2022/12/06 07:02:12;;;;;;;;;30.75;27.75;;;;;6.96;73.85;101496.19;5029181;28;47260;-85
2022/12/06 07:04:37;;;;;;;;;29.75;27.25;;;;;6.98;73.91;101491.03;5029351;28;45709;-85
2022/12/06 07:07:02;;;;;;;;;24.00;21.75;;;;;6.99;73.81;101490.22;5028660;28;45486;-86
2022/12/06 07:09:28;;;;;;;;;36.67;31.33;;;;;6.87;73.91;101469.47;5029721;28;45474;-85
2022/12/06 07:11:53;;;;;;;;;38.33;29.00;;;;;6.91;73.79;101475.81;5028262;28;57557;-85
2022/12/06 07:14:18;;;;;;;;;33.67;28.33;;;;;6.91;73.90;101466.25;5029429;28;48600;-85
2022/12/06 07:16:43;;;;;;;;;35.67;29.00;;;;;6.87;73.82;101460.75;5029210;28;45535;-85
2022/12/06 07:19:09;;;;;;;;;38.67;33.33;;;;;6.88;74.00;101458.22;5028469;28;47199;-84
2022/12/06 07:21:34;;;;;;;;;33.00;30.33;;;;;7.01;73.76;101485.09;5029327;28;45447;-84
2022/12/06 07:24:00;;;;;;;;;33.00;30.00;;;;;6.85;73.86;101459.75;5029167;28;45577;-85
2022/12/06 07:26:27;;;;;;;;;41.00;37.67;;;;;6.78;73.68;101458.47;5029344;28;45399;-84
2022/12/06 07:28:53;;;;;;;;;36.00;31.00;;;;;6.94;73.93;101489.94;5010785;28;45734;-83
2022/12/06 07:31:21;;;;;;;;;31.50;25.50;;;;;6.75;73.83;101445.25;5010767;28;46232;-85
2022/12/06 07:33:50;;;;;;;;;37.75;33.25;;;;;6.95;73.75;101483.03;5029383;28;46197;-83
2022/12/06 07:36:15;;;;;;;;;33.25;29.75;;;;;6.90;73.85;101482.75;5028833;28;45458;-85
2022/12/06 07:38:42;;;;;;;;;31.00;28.00;;;;;6.83;74.13;101477.94;5029275;28;45785;-84
2022/12/06 07:46:42;;;;;;;;;35.00;30.25;;;;;6.89;74.10;101477.41;5028780;28;45466;-84
2022/12/06 07:49:08;;;;;;;;;36.75;32.00;;;;;6.99;74.30;101490.22;5028859;28;45936;-83
2022/12/06 07:51:34;;;;;;;;;37.00;32.00;;;;;7.00;74.12;101489.44;5029512;28;45580;-85
2022/12/06 07:53:59;;;;;;;;;43.25;33.00;;;;;6.80;73.84;101448.09;5029007;28;45508;-84
2022/12/06 07:56:25;;;;;;;;;31.75;29.25;;;;;6.94;74.00;101475.97;5030149;28;45317;-84
2022/12/06 07:58:51;;;;;;;;;36.50;34.00;;;;;6.84;74.04;101452.69;5049351;28;45722;-85
2022/12/06 08:01:16;;;;;;;;;35.50;30.75;;;;;7.03;74.35;101488.69;5033327;28;45653;-86
2022/12/06 08:03:44;;;;;;;;;35.50;29.00;;;;;6.91;74.26;101458.41;5033600;28;45403;-82
2022/12/06 08:06:10;;;;;;;;;37.75;31.25;;;;;7.13;74.35;101497.19;5033636;28;45462;-83
2022/12/06 08:08:36;;;;;;;;;38.75;32.50;;;;;7.13;74.10;101494.56;5032908;28;45538;-83
2022/12/06 08:11:06;;;;;;;;;33.25;27.50;;;;;7.14;73.80;101492.84;5029756;28;45477;-85
2022/12/06 08:13:32;;;;;;;;;33.00;29.50;;;;;7.16;74.05;101502.59;5030021;28;46396;-82
2022/12/06 08:15:58;;;;;;;;;35.00;29.75;;;;;6.92;74.05;101451.47;5030209;28;45572;-80
2022/12/06 08:18:24;;;;;;;;;36.75;29.75;;;;;7.12;73.75;101486.66;5030900;28;56702;-78
2022/12/06 08:20:51;;;;;;;;;38.50;34.75;;;;;7.15;73.73;101492.97;5032145;28;45664;-80
2022/12/06 08:23:17;;;;;;;;;35.25;33.00;;;;;7.18;73.88;101495.75;5031908;28;45837;-79
2022/12/06 08:25:42;;;;;;;;;41.25;36.00;;;;;7.18;73.75;101497.47;5032365;28;45718;-85
2022/12/06 08:28:08;;;;;;;;;37.67;35.00;;;;;7.20;73.66;101512.44;5030936;28;51158;-85
2022/12/06 08:30:33;;;;;;;;;36.50;29.25;;;;;7.29;73.97;101517.34;5031869;28;45918;-86
2022/12/06 08:32:58;;;;;;;;;37.25;32.25;;;;;7.29;73.76;101519.03;5031933;28;45535;-85
2022/12/06 08:35:23;;;;;;;;;38.33;31.33;;;;;7.33;73.71;101524.53;5031950;28;45537;-84
2022/12/06 08:37:49;;;;;;;;;42.67;34.33;;;;;7.04;73.65;101473.09;5031716;28;45537;-85
2022/12/06 08:40:14;;;;;;;;;43.00;34.00;;;;;7.18;73.53;101494.84;5012850;28;62318;-86
2022/12/06 08:42:42;;;;;;;;;47.50;35.00;;;;;7.27;73.69;101507.56;5031542;28;45476;-81
2022/12/06 08:45:08;;;;;;;;;39.75;35.00;;;;;7.31;73.46;101525.25;5031205;28;45373;-84
2022/12/06 08:47:33;;;;;;;;;46.75;35.50;;;;;7.28;73.63;101519.84;5031920;28;45478;-85
2022/12/06 08:49:58;;;;;;;;;42.00;35.25;;;;;7.39;73.70;101542.28;5031096;28;45712;-85
2022/12/06 08:52:24;;;;;;;;;37.00;34.00;;;;;7.40;73.92;101549.34;5031954;28;45753;-86
2022/12/06 08:54:49;;;;;;;;;40.25;33.00;;;;;7.33;73.87;101541.94;5031786;28;46022;-85
2022/12/06 08:57:15;;;;;;;;;40.50;33.50;;;;;7.11;73.72;101501.44;5030766;28;45717;-85
2022/12/06 08:59:40;;;;;;;;;41.75;35.75;;;;;7.02;73.65;101490.41;5031626;28;46011;-84
2022/12/06 09:02:05;;;;;;;;;49.00;40.00;;;;;7.21;74.02;101513.34;5031042;28;45682;-82
2022/12/06 09:04:34;;;;;;;;;41.25;37.75;;;;;7.26;73.89;101514.53;5031255;28;45696;-83
2022/12/06 09:06:59;;;;;;;;;37.75;35.25;;;;;7.44;73.94;101543.50;5031848;28;45902;-83
2022/12/06 09:09:24;;;;;;;;;42.00;37.00;;;;;7.36;73.91;101526.44;5031446;28;49433;-86
2022/12/06 09:11:50;;;;;;;;;44.67;37.00;;;;;7.48;73.63;101545.47;5029992;28;61642;-81
2022/12/06 09:14:16;;;;;;;;;43.75;34.75;;;;;7.58;73.78;101562.59;5031041;28;45419;-84
2022/12/06 09:16:43;;;;;;;;;48.25;37.25;;;;;7.59;73.78;101562.72;5031364;28;45447;-83
2022/12/06 09:19:12;;;;;;;;;38.00;30.75;;;;;7.63;73.95;101569.00;5030186;28;45396;-85
2022/12/06 09:21:41;;;;;;;;;48.00;38.75;;;;;7.51;73.71;101537.81;5031493;28;45706;-85
2022/12/06 09:24:10;;;;;;;;;40.50;34.75;;;;;7.57;73.25;101553.84;5030769;28;45583;-82
2022/12/06 09:26:35;;;;;;;;;38.50;36.50;;;;;7.46;73.57;101531.41;5031154;28;45627;-81
2022/12/06 09:29:01;;;;;;;;;33.50;29.50;;;;;7.37;73.90;101504.69;5030396;28;45598;-80
2022/12/06 09:31:26;;;;;;;;;31.00;25.50;;;;;7.45;73.88;101527.88;5030960;28;45438;-83
2022/12/06 09:33:51;;;;;;;;;46.00;37.00;;;;;7.57;73.58;101534.66;5030598;28;48910;-83
2022/12/06 09:36:25;;;;;;;;;47.25;38.25;;;;;7.72;73.87;101557.38;5030732;28;45895;-85
2022/12/06 09:38:57;;;;;;;;;43.50;35.50;;;;;7.73;73.66;101566.13;5028878;28;47409;-83
2022/12/06 09:41:34;;;;;;;;;39.75;35.25;;;;;7.71;73.75;101558.19;5028807;28;45723;-83
2022/12/06 09:44:08;;;;;;;;;38.00;30.25;;;;;7.70;73.95;101561.63;5030588;28;45471;-81
2022/12/06 09:46:39;;;;;;;;;39.25;33.25;;;;;7.63;74.18;101545.47;5030684;28;45435;-82
2022/12/06 09:49:04;;;;;;;;;50.50;39.25;;;;;7.73;74.22;101569.69;5030099;28;48410;-82
2022/12/06 09:51:46;;;;;;;;;38.33;34.67;;;;;7.75;74.45;101567.16;5030692;28;45316;-85
2022/12/06 09:54:29;;;;;;;;;45.00;36.25;;;;;7.78;74.34;101567.31;5030948;28;45425;-85
2022/12/06 09:57:06;;;;;;;;;43.25;34.50;;;;;7.75;74.27;101560.19;5030442;28;45386;-84
2022/12/06 09:59:55;;;;;;;;;44.75;36.00;;;;;7.82;74.47;101564.06;5030566;28;45409;-84
2022/12/06 10:02:42;;;;;;;;;44.00;38.25;;;;;7.61;74.14;101529.69;5029943;28;45722;-84
2022/12/06 10:05:56;;;;;;;;;47.50;35.50;;;;;7.86;74.19;101573.00;5030411;28;45371;-83
2022/12/06 10:08:43;;;;;;;;;38.50;30.75;;;;;7.87;74.18;101572.19;5021542;28;45425;-83
2022/12/06 10:11:22;;;;;;;;;41.00;34.75;;;;;7.75;74.03;101546.22;5029800;28;45580;-85
2022/12/06 10:13:54;;;;;;;;;48.75;36.50;;;;;7.93;74.17;101577.75;5028816;28;45778;-82
2022/12/06 10:16:55;;;;;;;;;42.25;32.50;;;;;7.93;74.00;101573.47;5045271;28;45601;-84
2022/12/06 10:19:38;;;;;;;;;39.25;30.75;;;;;7.94;73.95;101561.28;4957799;28;46009;-84
2022/12/06 10:22:33;;;;;;;;;42.00;32.00;;;;;7.95;73.98;101563.06;5029851;28;45477;-82
2022/12/06 10:25:17;;;;;;;;;38.25;32.25;;;;;7.94;73.96;101556.94;5029606;28;45708;-84
2022/12/06 10:27:54;;;;;;;;;37.50;33.25;;;;;7.93;74.15;101560.38;5030528;28;45363;-80
2022/12/06 10:30:19;;;;;;;;;39.25;33.00;;;;;7.75;74.27;101523.56;5030177;28;45658;-78
2022/12/06 10:33:05;;;;;;;;;40.00;31.00;;;;;7.96;74.30;101559.63;5029898;28;46146;-81
2022/12/06 10:35:48;;;;;;;;;34.00;28.00;;;;;7.98;74.41;101563.25;5030111;28;45459;-79
2022/12/06 10:38:27;;;;;;;;;37.75;35.50;;;;;8.00;74.41;101566.84;5011916;28;45677;-79
2022/12/06 10:41:09;;;;;;;;;38.00;34.75;;;;;8.02;74.45;101573.06;5028539;28;45368;-79
2022/12/06 10:43:52;;;;;;;;;38.00;30.75;;;;;8.04;74.76;101578.41;5029985;28;46278;-79
2022/12/06 10:49:13;;;;;;;;;30.75;26.50;;;;;7.80;74.44;101520.31;5029937;28;45478;-80
2022/12/06 10:51:44;;;;;;;;;37.50;32.75;;;;;8.04;74.50;101562.72;5030107;28;45420;-87
2022/12/06 10:54:37;;;;;;;;;31.75;27.75;;;;;8.04;74.43;101558.38;5029190;28;48127;-85
2022/12/06 10:57:10;;;;;;;;;35.00;31.25;;;;;7.94;74.54;101537.72;5019279;28;45338;-87
2022/12/06 10:59:41;;;;;;;;;36.75;30.75;;;;;8.04;74.42;101554.84;5030004;28;45527;-86
2022/12/06 11:02:39;;;;;;;;;27.75;24.25;;;;;8.01;74.61;101563.41;5029106;28;45610;-86
2022/12/06 11:05:16;;;;;;;;;31.50;26.75;;;;;7.86;74.93;101538.97;5001693;28;45768;-88
2022/12/06 11:07:45;;;;;;;;;29.50;25.75;;;;;7.76;75.07;101524.47;5030147;28;45809;-87
2022/12/06 11:10:33;;;;;;;;;33.00;28.50;;;;;7.97;75.00;101561.44;5028933;28;45522;-86
2022/12/06 11:13:20;;;;;;;;;31.25;27.75;;;;;7.67;75.43;101514.34;5029413;28;45400;-86
2022/12/06 11:15:53;;;;;;;;;35.75;28.75;;;;;7.68;75.48;101505.69;5029119;28;45736;-86
2022/12/06 11:18:19;;;;;;;;;34.00;29.25;;;;;7.97;75.40;101550.97;5028513;28;45403;-86
2022/12/06 11:20:53;;;;;;;;;28.50;25.75;;;;;7.99;75.32;101538.88;5029642;28;45376;-86
2022/12/06 11:23:29;;;;;;;;;30.75;27.25;;;;;7.86;75.28;101518.03;5029358;28;45644;-87
2022/12/06 11:26:19;;;;;;;;;37.25;30.00;;;;;8.05;75.19;101546.19;5029304;28;46684;-86
2022/12/06 11:28:59;;;;;;;;;32.00;28.00;;;;;7.93;74.95;101517.56;5029813;28;45519;-85
2022/12/06 11:31:29;;;;;;;;;23.75;22.25;;;;;8.09;75.24;101543.84;5010844;28;45443;-87
2022/12/06 11:33:57;;;;;;;;;29.50;26.00;;;;;7.98;74.89;101519.66;5029079;28;45531;-82
2022/12/06 11:36:24;;;;;;;;;30.50;28.00;;;;;8.10;74.95;101529.91;5029121;28;45540;-86
2022/12/06 11:38:50;;;;;;;;;34.50;25.50;;;;;8.07;74.78;101519.25;5028957;28;45970;-86
2022/12/06 11:41:28;;;;;;;;;24.25;20.50;;;;;8.17;74.62;101525.91;5028995;28;45322;-86
2022/12/06 11:43:55;;;;;;;;;32.75;26.75;;;;;8.21;74.65;101525.28;5029300;28;45608;-86
2022/12/06 11:46:22;;;;;;;;;27.25;25.50;;;;;8.25;74.55;101515.06;5028435;28;46142;-86
2022/12/06 11:48:48;;;;;;;;;34.75;28.75;;;;;8.13;74.41;101493.44;5029404;28;46015;-81
2022/12/06 11:51:17;;;;;;;;;28.75;23.75;;;;;8.32;74.52;101515.41;5029078;28;45424;-87
2022/12/06 11:53:59;;;;;;;;;31.50;26.25;;;;;8.05;74.36;101460.69;5032958;28;45789;-85
2022/12/06 11:56:31;;;;;;;;;24.00;23.75;;;;;8.30;74.34;101501.34;5031043;28;47601;-87
2022/12/06 11:59:16;;;;;;;;;28.25;24.50;;;;;8.28;74.41;101494.31;5030730;28;45653;-86
2022/12/06 12:01:46;;;;;;;;;29.00;25.75;;;;;8.32;74.63;101492.72;5032155;28;45497;-84